Pagrindinis puslapis
METAR-TAF:

METAR-TAF

Oro uostai :

Jakuiba, Bolivija

platuma: 21-57S, ilguma: 063-39W, Aukštis: 645 m

Dabartinis oras

Ataskaita buvo paskelbta 53 minutes, ne 20:00 UTC
Ramus vėjas
Temperatūra 26°C
Drėgmė 42%
Slėgis 1019 hPa
Matomumas 10 km arba daugiau
Mažai debesys ne aukštis 7000 ft

METAR: SLYA 222000Z 00000KT 9999 FEW070 26/12 Q1019

Laikas: 16:53 (20:53 UTC)


TAF: trūkstamas

Orai ataskaitas ir orų prognozės (METAR, TAF).

turimą stotys yra geltonos ir raudonos taškus žemėlapyje.

Perkelti pele per norėdami pamatyti stoties vardą.

Tada spustelėkite, norėdami matyti oro stebėjimo ir prognozės.

Norėdami pakeisti žemėlapį: spustelėkite ant žalios mygtukų su juodo kryžiaus žemyn,; žalią mygtuką su brūkšneliu, jei norite nutolinti; arba žalių rodyklių gretimoms žemėlapius.


METAR-TAF: